Time;durP1;ratioP1;P1;durP2;ratioP2;P2;SDS_P1;SDS_P2;PMS_P1;PMS_P2;Temp;Humidity;BMP_temperature;BMP_pressure;BME280_temperature;BME280_humidity;BME280_pressure;Samples;Min_cycle;Max_cycle;Signal;HPM_P1;HPM_P2
2023/04/19 00:00:26;;;;;;;8.30;3.10;;;;;;;8.90;52.27;102650.19;5005022;28;20029;-51
2023/04/19 00:02:53;;;;;;;21.63;4.85;;;;;;;8.89;52.67;102648.47;5007332;28;20036;-51
2023/04/19 00:05:21;;;;;;;7.97;3.60;;;;;;;8.89;52.32;102644.09;5003261;28;21700;-50
2023/04/19 00:07:46;;;;;;;11.65;4.47;;;;;;;8.88;52.22;102646.75;5008205;28;20028;-51
2023/04/19 00:10:12;;;;;;;7.85;3.30;;;;;;;8.83;52.33;102645.09;5009938;28;20038;-48
2023/04/19 00:12:37;;;;;;;9.20;3.05;;;;;;;8.81;52.45;102638.13;5013054;28;20029;-51
2023/04/19 00:15:03;;;;;;;5.30;3.22;;;;;;;8.79;52.42;102632.91;5004554;28;20120;-49
2023/04/19 00:17:29;;;;;;;6.95;3.33;;;;;;;8.77;52.49;102637.31;5011397;28;20057;-50
2023/04/19 00:19:55;;;;;;;13.82;4.22;;;;;;;8.77;52.48;102631.22;5004589;28;20468;-48
2023/04/19 00:22:21;;;;;;;7.00;3.53;;;;;;;8.78;52.06;102625.06;5001774;28;21285;-53
2023/04/19 00:24:46;;;;;;;6.88;2.88;;;;;;;8.79;52.28;102626.78;5008956;28;20033;-47
2023/04/19 00:27:11;;;;;;;6.43;2.80;;;;;;;8.79;52.37;102625.03;5011863;28;20057;-51
2023/04/19 00:29:37;;;;;;;11.95;3.28;;;;;;;8.80;52.21;102625.88;5008059;28;20553;-48
2023/04/19 00:32:04;;;;;;;5.20;2.95;;;;;;;8.76;52.00;102621.63;5008484;28;20037;-47
2023/04/19 00:34:30;;;;;;;7.55;3.40;;;;;;;8.75;52.19;102628.63;5012234;28;20120;-50
2023/04/19 00:36:55;;;;;;;7.30;3.20;;;;;;;8.73;51.92;102622.53;5004727;28;20052;-49
2023/04/19 00:39:21;;;;;;;6.07;3.00;;;;;;;8.73;52.01;102619.91;5005420;28;20601;-49
2023/04/19 00:41:46;;;;;;;9.68;3.13;;;;;;;8.73;51.75;102621.69;5007376;28;20080;-51
2023/04/19 00:44:12;;;;;;;4.57;2.13;;;;;;;8.69;51.91;102616.47;5009619;28;20033;-52
2023/04/19 00:46:38;;;;;;;10.43;2.90;;;;;;;8.69;51.96;102615.63;5006322;28;20033;-48
2023/04/19 00:49:03;;;;;;;7.35;2.72;;;;;;;8.68;52.01;102609.50;5006961;28;20026;-50
2023/04/19 00:51:30;;;;;;;7.63;2.20;;;;;;;8.68;52.01;102611.28;5015249;28;20025;-48
2023/04/19 00:53:56;;;;;;;7.47;2.80;;;;;;;8.61;51.82;102607.03;5005288;28;20065;-48
2023/04/19 00:56:22;;;;;;;6.25;2.72;;;;;;;8.59;51.95;102604.44;5007591;28;20033;-49
2023/04/19 00:58:48;;;;;;;4.80;3.08;;;;;;;8.58;52.19;102599.19;5005338;28;20057;-49
2023/04/19 01:01:14;;;;;;;6.00;3.80;;;;;;;8.60;52.00;102600.03;5007547;28;20112;-50
2023/04/19 01:03:40;;;;;;;5.55;2.47;;;;;;;8.62;51.97;102596.47;5012934;28;20034;-50
2023/04/19 01:06:05;;;;;;;6.40;3.00;;;;;;;8.61;51.93;102591.28;5004603;28;20033;-48
2023/04/19 01:08:31;;;;;;;8.93;2.75;;;;;;;8.56;51.73;102593.13;5010899;28;20077;-52
2023/04/19 01:10:57;;;;;;;5.10;2.30;;;;;;;8.47;51.85;102588.91;5005594;28;21426;-51
2023/04/19 01:13:22;;;;;;;7.53;2.65;;;;;;;8.39;52.28;102589.06;5003452;28;20038;-49
2023/04/19 01:15:48;;;;;;;8.30;3.75;;;;;;;8.32;52.58;102584.81;5003628;28;20042;-51
2023/04/19 01:18:13;;;;;;;5.28;2.33;;;;;;;8.29;52.12;102580.50;5006659;28;20499;-48
2023/04/19 01:20:39;;;;;;;7.72;2.60;;;;;;;8.27;52.18;102581.38;5004078;28;20515;-55
2023/04/19 01:23:05;;;;;;;4.57;2.47;;;;;;;8.21;52.48;102570.13;5010879;28;20464;-46
2023/04/19 01:25:30;;;;;;;10.18;2.67;;;;;;;8.18;52.51;102564.06;5005930;28;20548;-47
2023/04/19 01:27:55;;;;;;;7.35;2.78;;;;;;;8.13;52.56;102561.53;5005021;28;20419;-54
2023/04/19 01:30:21;;;;;;;6.70;2.03;;;;;;;8.08;52.91;102566.00;5006664;28;20033;-48
2023/04/19 01:32:47;;;;;;;7.13;3.63;;;;;;;8.03;52.83;102565.22;5007346;28;20055;-53
2023/04/19 01:35:12;;;;;;;8.30;2.05;;;;;;;7.97;52.93;102560.97;5005741;28;20462;-50
2023/04/19 01:37:38;;;;;;;3.63;1.63;;;;;;;7.89;53.31;102560.22;5004553;28;20048;-51
2023/04/19 01:40:05;;;;;;;5.93;2.67;;;;;;;7.86;53.19;102555.91;5004293;28;20036;-48
2023/04/19 01:42:31;;;;;;;11.55;3.53;;;;;;;7.80;53.43;102556.00;5006667;28;20048;-50
2023/04/19 01:44:57;;;;;;;6.47;3.03;;;;;;;7.80;53.80;102549.91;5006937;28;20037;-48
2023/04/19 01:47:23;;;;;;;9.93;3.00;;;;;;;7.77;53.85;102556.06;5005704;28;20024;-52
2023/04/19 01:49:49;;;;;;;9.00;3.63;;;;;;;7.67;54.19;102546.59;5000678;28;20034;-51
2023/04/19 01:52:14;;;;;;;14.02;3.17;;;;;;;7.61;54.62;102542.34;5006215;28;20029;-53
2023/04/19 01:54:40;;;;;;;12.63;3.00;;;;;;;7.60;54.73;102541.47;5003558;28;20042;-48
2023/04/19 01:57:05;;;;;;;7.70;3.00;;;;;;;7.60;54.61;102530.13;5005895;28;20041;-47
2023/04/19 01:59:31;;;;;;;7.80;3.28;;;;;;;7.61;54.62;102529.22;5005800;28;20041;-51
2023/04/19 02:01:56;;;;;;;7.80;2.60;;;;;;;7.63;54.91;102528.34;5004870;28;20086;-51
2023/04/19 02:04:22;;;;;;;10.05;3.05;;;;;;;7.61;55.34;102526.63;5005225;28;20335;-51
2023/04/19 02:06:47;;;;;;;3.97;2.17;;;;;;;7.57;55.69;102512.72;5002643;28;20053;-49
2023/04/19 02:09:12;;;;;;;10.68;2.60;;;;;;;7.56;55.57;102504.88;4999750;28;20038;-49
2023/04/19 02:11:38;;;;;;;8.23;2.92;;;;;;;7.56;56.46;102512.75;5002739;28;20037;-46
2023/04/19 02:14:03;;;;;;;7.20;2.88;;;;;;;7.54;56.26;102512.75;5002556;28;20038;-55
2023/04/19 02:16:29;;;;;;;7.30;2.47;;;;;;;7.53;56.51;102508.41;5003825;28;20108;-48
2023/04/19 02:18:54;;;;;;;10.70;2.85;;;;;;;7.53;56.81;102515.41;5001553;28;20033;-52
2023/04/19 02:21:20;;;;;;;8.18;2.25;;;;;;;7.49;56.61;102514.56;4999544;28;20048;-50
2023/04/19 02:23:45;;;;;;;7.00;2.45;;;;;;;7.48;57.16;102508.47;5008783;28;20048;-48
2023/04/19 02:26:11;;;;;;;5.38;2.03;;;;;;;7.49;57.28;102509.34;5007113;28;20040;-48
2023/04/19 02:28:38;;;;;;;3.80;2.10;;;;;;;7.44;57.98;102505.94;5007726;28;20037;-51
2023/04/19 02:31:07;;;;;;;7.32;2.40;;;;;;;7.39;58.02;102507.75;5007944;28;20045;-46
2023/04/19 02:33:33;;;;;;;6.22;2.22;;;;;;;7.27;58.88;102512.31;5001226;28;20017;-50
2023/04/19 02:35:59;;;;;;;5.20;2.13;;;;;;;7.26;58.98;102491.41;5003269;28;20518;-47
2023/04/19 02:38:24;;;;;;;5.65;2.42;;;;;;;7.24;59.31;102494.03;4999226;28;20026;-50
2023/04/19 02:40:50;;;;;;;19.27;4.18;;;;;;;7.21;59.68;102488.81;5000837;28;20034;-53
2023/04/19 02:43:15;;;;;;;6.00;2.20;;;;;;;7.19;59.41;102489.75;5007517;28;20124;-51
2023/04/19 02:45:41;;;;;;;7.40;2.55;;;;;;;7.22;59.66;102490.56;4996214;28;20416;-51
2023/04/19 02:48:06;;;;;;;7.20;2.15;;;;;;;7.18;59.93;102488.91;5002661;28;20112;-46
2023/04/19 02:50:32;;;;;;;9.27;2.33;;;;;;;7.15;60.43;102481.09;5038164;22;21022;-52
2023/04/19 02:52:57;;;;;;;5.70;2.42;;;;;;;7.08;60.58;102476.81;5026260;28;20126;-50
2023/04/19 02:55:23;;;;;;;8.98;2.83;;;;;;;7.07;60.87;102475.09;5028454;28;20040;-52
2023/04/19 02:57:48;;;;;;;9.02;2.63;;;;;;;7.07;60.90;102475.09;5021450;28;20067;-49
2023/04/19 03:00:15;;;;;;;6.75;2.58;;;;;;;7.04;60.80;102469.91;5003234;28;20033;-48
2023/04/19 03:02:42;;;;;;;9.90;2.20;;;;;;;7.06;60.93;102473.34;5011087;28;20022;-52
2023/04/19 03:05:09;;;;;;;4.75;2.13;;;;;;;7.07;60.55;102468.13;5000764;28;20029;-51
2023/04/19 03:07:35;;;;;;;7.38;2.45;;;;;;;7.09;60.75;102468.09;4992608;28;20124;-49
2023/04/19 03:10:00;;;;;;;7.38;2.33;;;;;;;7.09;60.76;102468.97;4996728;28;20033;-49
2023/04/19 03:12:26;;;;;;;4.03;1.85;;;;;;;7.06;60.82;102462.88;4983381;28;20104;-49
2023/04/19 03:14:51;;;;;;;9.70;2.90;;;;;;;7.10;60.50;102456.72;5004211;28;20036;-49
2023/04/19 03:17:17;;;;;;;5.95;2.17;;;;;;;7.12;60.87;102462.81;5010270;28;20135;-54
2023/04/19 03:19:43;;;;;;;8.38;2.25;;;;;;;7.12;60.18;102449.72;5003066;28;20034;-51
2023/04/19 03:22:08;;;;;;;5.78;2.17;;;;;;;7.10;60.06;102444.50;5004129;28;20479;-48
2023/04/19 03:24:33;;;;;;;5.05;2.35;;;;;;;7.10;60.50;102447.13;5005273;28;20073;-50
2023/04/19 03:26:59;;;;;;;7.43;2.35;;;;;;;7.11;60.26;102429.66;5001114;28;20040;-48
2023/04/19 03:29:25;;;;;;;6.07;2.05;;;;;;;7.09;60.67;102441.91;5000684;28;20156;-56
2023/04/19 03:31:50;;;;;;;6.55;2.22;;;;;;;7.04;61.02;102433.25;5002966;28;20172;-53
2023/04/19 03:34:16;;;;;;;6.57;2.55;;;;;;;7.02;61.21;102438.53;5005547;28;20116;-54
2023/04/19 03:36:41;;;;;;;7.28;2.30;;;;;;;6.98;61.13;102435.09;4996753;28;20034;-54
2023/04/19 03:39:07;;;;;;;6.15;2.00;;;;;;;6.97;60.79;102437.72;5003349;28;20126;-49
2023/04/19 03:41:32;;;;;;;4.85;2.20;;;;;;;6.94;61.11;102422.94;5006381;28;20037;-48
2023/04/19 03:43:58;;;;;;;9.43;2.00;;;;;;;6.90;61.25;102430.88;5002845;28;20065;-49
2023/04/19 03:46:24;;;;;;;5.97;2.22;;;;;;;6.85;61.35;102417.84;5006326;28;20029;-49
2023/04/19 03:48:50;;;;;;;5.07;2.25;;;;;;;6.83;61.75;102410.00;4998681;28;20036;-48
2023/04/19 03:51:15;;;;;;;3.95;1.75;;;;;;;6.76;62.12;102412.75;5009611;28;20083;-57
2023/04/19 03:53:41;;;;;;;7.82;2.67;;;;;;;6.77;61.86;102406.63;5007787;28;20632;-51
2023/04/19 03:56:06;;;;;;;5.85;1.50;;;;;;;6.73;62.16;102407.56;5002388;28;20526;-48
2023/04/19 03:58:32;;;;;;;7.18;2.10;;;;;;;6.74;62.01;102404.03;5003895;28;20156;-49
2023/04/19 04:00:58;;;;;;;6.53;2.83;;;;;;;6.79;61.85;102408.34;5002110;28;20032;-50
2023/04/19 04:03:24;;;;;;;9.10;3.10;;;;;;;6.84;61.57;102406.50;5005811;28;20057;-49
2023/04/19 04:05:49;;;;;;;6.65;2.17;;;;;;;6.86;62.08;102398.66;5002701;28;20164;-52
2023/04/19 04:08:15;;;;;;;5.45;2.15;;;;;;;6.89;61.89;102398.56;5000956;28;20049;-49
2023/04/19 04:10:40;;;;;;;7.00;2.17;;;;;;;6.91;61.49;102402.03;5005960;28;20124;-54
2023/04/19 04:13:06;;;;;;;14.73;5.55;;;;;;;6.86;62.01;102396.03;5011564;28;20052;-49
2023/04/19 04:15:31;;;;;;;6.32;1.83;;;;;;;6.86;62.05;102399.50;5007003;28;20037;-56
2023/04/19 04:17:57;;;;;;;4.85;1.83;;;;;;;6.87;61.66;102395.16;5002825;28;20431;-48
2023/04/19 04:20:22;;;;;;;3.90;2.20;;;;;;;6.87;61.83;102395.16;5005344;28;20053;-53
2023/04/19 04:22:47;;;;;;;8.68;1.90;;;;;;;6.88;61.68;102401.22;5003803;28;20037;-49
2023/04/19 04:25:14;;;;;;;3.78;1.73;;;;;;;6.83;62.19;102401.31;5007474;28;20041;-52
2023/04/19 04:27:43;;;;;;;3.55;1.80;;;;;;;6.86;61.84;102394.28;5017218;28;20021;-50
2023/04/19 04:30:10;;;;;;;8.73;2.03;;;;;;;6.82;61.99;102389.13;5002889;28;20068;-51
2023/04/19 04:32:37;;;;;;;4.07;1.42;;;;;;;6.81;62.27;102390.84;4998644;28;20112;-50
2023/04/19 04:35:03;;;;;;;5.65;2.08;;;;;;;6.84;62.29;102389.97;5007361;28;20045;-52
2023/04/19 04:37:32;;;;;;;6.93;2.15;;;;;;;6.86;61.68;102389.03;4990059;28;20114;-51
2023/04/19 04:39:59;;;;;;;5.43;1.95;;;;;;;6.88;61.95;102391.66;4992494;28;21237;-50
2023/04/19 04:42:25;;;;;;;5.80;2.15;;;;;;;6.85;62.32;102386.44;4998857;28;20112;-51
2023/04/19 04:44:51;;;;;;;4.15;1.52;;;;;;;6.90;62.21;102384.59;5003585;28;20029;-49
2023/04/19 04:47:16;;;;;;;5.75;1.65;;;;;;;6.88;62.39;102386.41;5000865;28;20044;-50
2023/04/19 04:49:42;;;;;;;6.47;2.42;;;;;;;6.85;62.53;102374.22;4995708;28;20087;-48
2023/04/19 04:52:07;;;;;;;5.93;2.30;;;;;;;6.85;62.68;102381.22;4991096;28;20336;-50
2023/04/19 04:54:33;;;;;;;3.75;1.40;;;;;;;6.82;62.98;102374.25;5002482;28;20709;-47
2023/04/19 04:57:00;;;;;;;5.45;1.50;;;;;;;6.92;62.76;102390.69;4999631;28;20040;-49
2023/04/19 04:59:25;;;;;;;7.45;1.88;;;;;;;6.90;62.90;102379.38;5007595;28;20109;-54
2023/04/19 05:01:51;;;;;;;5.72;1.60;;;;;;;6.92;62.82;102376.75;4995576;28;21486;-49
2023/04/19 05:04:17;;;;;;;9.18;2.08;;;;;;;6.88;62.94;102380.28;5002216;28;20040;-51
2023/04/19 05:06:43;;;;;;;9.80;2.38;;;;;;;6.99;62.31;102375.75;4999747;28;20128;-50
2023/04/19 05:09:09;;;;;;;2.78;1.55;;;;;;;7.02;62.56;102370.47;5003910;28;20109;-53
2023/04/19 05:11:35;;;;;;;5.07;1.80;;;;;;;7.00;62.67;102375.75;4998382;28;20043;-50
2023/04/19 05:14:01;;;;;;;7.63;1.60;;;;;;;7.03;62.71;102373.97;5007828;28;20149;-50
2023/04/19 05:16:27;;;;;;;5.63;1.60;;;;;;;7.10;62.58;102365.09;5012461;28;20056;-49
2023/04/19 05:18:52;;;;;;;10.73;1.60;;;;;;;7.14;62.19;102366.78;5009694;28;20025;-48
2023/04/19 05:21:17;;;;;;;4.10;1.52;;;;;;;7.17;62.25;102359.72;5003215;28;20045;-48
2023/04/19 05:23:43;;;;;;;5.32;2.38;;;;;;;7.19;62.35;102362.31;5004779;28;20124;-54
2023/04/19 05:26:13;;;;;;;7.55;2.58;;;;;;;7.27;61.88;102357.81;4994595;28;20115;-49
2023/04/19 05:28:40;;;;;;;6.38;2.00;;;;;;;7.30;61.87;102362.13;5000854;28;20416;-55
2023/04/19 05:31:05;;;;;;;4.45;1.45;;;;;;;7.30;62.40;102360.38;5016824;28;20021;-52
2023/04/19 05:33:31;;;;;;;6.45;2.33;;;;;;;7.33;62.15;102355.06;5006807;28;20052;-52
2023/04/19 05:35:56;;;;;;;8.65;2.55;;;;;;;7.39;62.23;102350.63;5009850;28;20029;-50
2023/04/19 05:38:22;;;;;;;8.93;1.85;;;;;;;7.38;62.31;102348.91;5001431;28;20057;-49
2023/04/19 05:40:47;;;;;;;7.00;1.75;;;;;;;7.47;61.75;102351.38;5007397;28;20036;-51
2023/04/19 05:43:13;;;;;;;7.18;2.30;;;;;;;7.52;61.64;102356.50;5002485;28;20029;-55
2023/04/19 05:45:38;;;;;;;5.63;1.45;;;;;;;7.46;62.19;102352.25;5005041;28;20037;-49
2023/04/19 05:48:04;;;;;;;9.88;2.13;;;;;;;7.54;61.67;102349.50;4998827;28;20049;-50
2023/04/19 05:50:30;;;;;;;8.60;2.17;;;;;;;7.56;61.93;102343.31;5002495;28;20037;-53
2023/04/19 05:52:55;;;;;;;3.15;1.63;;;;;;;7.60;61.88;102354.59;4990020;28;20743;-49
2023/04/19 05:55:21;;;;;;;5.70;1.63;;;;;;;7.67;61.73;102344.84;4995624;28;20088;-54
2023/04/19 05:57:46;;;;;;;5.30;1.55;;;;;;;7.73;61.46;102344.75;4999793;28;20029;-52
2023/04/19 06:00:12;;;;;;;5.28;2.03;;;;;;;7.76;61.65;102342.91;5003422;28;20036;-50
2023/04/19 06:02:38;;;;;;;4.25;1.40;;;;;;;7.82;61.31;102341.94;4988191;28;20116;-49
2023/04/19 06:05:04;;;;;;;7.80;1.98;;;;;;;7.90;61.38;102345.28;4991721;28;20460;-48
2023/04/19 06:07:30;;;;;;;12.38;3.58;;;;;;;7.89;61.41;102330.44;4989188;28;20175;-52
2023/04/19 06:09:55;;;;;;;7.03;1.90;;;;;;;7.92;61.38;102334.75;5004363;28;20036;-51
2023/04/19 06:12:21;;;;;;;6.07;1.95;;;;;;;7.98;61.30;102334.63;4998282;28;20041;-52
2023/04/19 06:14:46;;;;;;;6.97;1.70;;;;;;;8.05;61.23;102337.97;5005342;28;20052;-52
2023/04/19 06:17:13;;;;;;;6.47;1.77;;;;;;;8.10;61.23;102336.09;4994940;28;20037;-49
2023/04/19 06:19:38;;;;;;;8.63;2.33;;;;;;;8.15;61.38;102342.13;4986472;28;20415;-53
2023/04/19 06:22:04;;;;;;;11.98;2.45;;;;;;;8.26;60.97;102333.13;5019703;28;20038;-52
2023/04/19 06:24:29;;;;;;;5.75;1.48;;;;;;;8.28;61.30;102328.72;5015168;28;20158;-51
2023/04/19 06:26:56;;;;;;;12.65;2.30;;;;;;;8.34;60.84;102331.22;5003293;28;20391;-52
2023/04/19 06:29:23;;;;;;;9.45;2.00;;;;;;;8.47;60.94;102337.06;5012825;28;20069;-51
2023/04/19 06:31:48;;;;;;;5.95;1.92;;;;;;;8.50;60.62;102324.75;5013111;28;20029;-51
2023/04/19 06:34:14;;;;;;;5.75;2.25;;;;;;;8.56;60.57;102331.59;5016362;28;20094;-52
2023/04/19 06:36:39;;;;;;;9.20;2.13;;;;;;;8.63;60.23;102312.19;5020579;28;20084;-52
2023/04/19 06:39:05;;;;;;;11.63;2.78;;;;;;;8.69;60.01;102316.44;4992533;28;20908;-52
2023/04/19 06:41:30;;;;;;;6.63;2.40;;;;;;;8.77;59.98;102329.38;5004210;28;20116;-52
2023/04/19 06:43:56;;;;;;;12.63;2.38;;;;;;;8.79;59.78;102312.69;5005308;28;20029;-52
2023/04/19 06:46:21;;;;;;;10.10;1.85;;;;;;;8.87;59.81;102315.13;5004937;28;20026;-52
2023/04/19 06:48:46;;;;;;;7.25;2.45;;;;;;;8.90;59.54;102315.03;5004918;28;20038;-51
2023/04/19 06:51:12;;;;;;;7.30;2.47;;;;;;;8.92;59.52;102309.75;5001121;28;20034;-49
2023/04/19 06:53:37;;;;;;;8.02;1.90;;;;;;;8.97;59.18;102321.00;4985526;28;20145;-49
2023/04/19 06:56:03;;;;;;;6.30;2.08;;;;;;;9.01;59.00;102306.88;4999876;28;20072;-49
2023/04/19 06:58:29;;;;;;;6.60;1.98;;;;;;;9.12;59.13;102314.47;5001208;28;20100;-52
2023/04/19 07:00:55;;;;;;;8.38;2.28;;;;;;;9.18;58.63;102305.56;5007503;28;20060;-51
2023/04/19 07:03:21;;;;;;;7.28;2.42;;;;;;;9.26;58.38;102311.47;5001959;28;20037;-53
2023/04/19 07:05:47;;;;;;;3.70;1.95;;;;;;;9.38;58.13;102305.88;5003352;28;24840;-51
2023/04/19 07:08:12;;;;;;;8.15;2.40;;;;;;;9.48;57.90;102303.88;4993141;28;20468;-51
2023/04/19 07:10:38;;;;;;;9.38;2.55;;;;;;;9.54;57.15;102294.94;4998795;28;20035;-51
2023/04/19 07:13:03;;;;;;;10.82;2.40;;;;;;;9.65;56.83;102298.13;5004134;28;20037;-50
2023/04/19 07:15:29;;;;;;;9.35;2.58;;;;;;;9.77;56.56;102303.00;5001159;28;20038;-51
2023/04/19 07:17:54;;;;;;;5.93;2.33;;;;;;;9.85;56.06;102301.94;5008976;28;20048;-52
2023/04/19 07:20:20;;;;;;;12.23;3.63;;;;;;;9.90;55.82;102292.16;5005960;28;20033;-54
2023/04/19 07:22:46;;;;;;;6.47;2.55;;;;;;;9.94;55.64;102292.94;5003059;28;20056;-51
2023/04/19 07:25:11;;;;;;;10.30;3.05;;;;;;;9.96;55.11;102281.44;4999879;28;20487;-53
2023/04/19 07:27:37;;;;;;;9.43;2.65;;;;;;;10.03;55.11;102284.75;4989684;28;20412;-51
2023/04/19 07:30:02;;;;;;;10.32;3.10;;;;;;;10.02;54.71;102281.25;5003277;28;20091;-52
2023/04/19 07:32:28;;;;;;;7.50;3.45;;;;;;;10.06;54.70;102271.50;5005342;28;20399;-49
2023/04/19 07:34:53;;;;;;;8.95;3.03;;;;;;;10.13;54.25;102270.41;5017023;28;20063;-54
2023/04/19 07:37:19;;;;;;;5.60;3.08;;;;;;;10.21;54.30;102270.16;5020107;28;20038;-52
2023/04/19 07:39:44;;;;;;;10.63;3.20;;;;;;;10.30;54.03;102279.50;5007824;28;20033;-51
2023/04/19 07:42:10;;;;;;;15.68;3.30;;;;;;;10.35;53.50;102264.44;5004775;28;20037;-49
2023/04/19 07:44:35;;;;;;;9.07;2.88;;;;;;;10.46;53.26;102259.72;5001465;28;20047;-50
2023/04/19 07:47:03;;;;;;;5.85;2.70;;;;;;;10.51;52.71;102268.34;4987656;28;20084;-52
2023/04/19 07:49:32;;;;;;;5.75;2.08;;;;;;;10.57;52.67;102261.16;5006212;28;20034;-52
2023/04/19 07:51:59;;;;;;;7.63;2.95;;;;;;;10.60;52.55;102267.19;4988691;28;20093;-51
2023/04/19 07:54:25;;;;;;;7.15;2.58;;;;;;;10.67;52.43;102258.13;4987550;28;20042;-51
2023/04/19 07:56:50;;;;;;;10.73;3.13;;;;;;;10.73;52.39;102245.69;4974860;28;20030;-51
2023/04/19 07:59:16;;;;;;;7.75;2.67;;;;;;;10.85;52.49;102252.31;4998017;28;20568;-52
2023/04/19 08:01:42;;;;;;;13.27;3.30;;;;;;;10.91;52.24;102245.06;4999978;28;20048;-50
2023/04/19 08:04:07;;;;;;;9.38;3.10;;;;;;;10.94;51.53;102238.81;4999239;28;20064;-50
2023/04/19 08:06:33;;;;;;;10.20;2.60;;;;;;;10.95;51.39;102241.41;4997821;28;20459;-51
2023/04/19 08:08:59;;;;;;;8.57;2.50;;;;;;;10.93;51.25;102235.34;4994761;28;20079;-52
2023/04/19 08:11:24;;;;;;;6.50;2.88;;;;;;;10.94;50.71;102236.19;4992130;28;22571;-54
2023/04/19 08:13:50;;;;;;;8.18;2.20;;;;;;;10.98;50.55;102230.75;4991141;28;20522;-51
2023/04/19 08:16:15;;;;;;;8.18;2.45;;;;;;;11.09;50.61;102242.69;4989140;28;20048;-53
2023/04/19 08:18:41;;;;;;;8.60;2.65;;;;;;;11.17;50.54;102240.63;5010775;28;20092;-50
2023/04/19 08:21:06;;;;;;;7.22;2.95;;;;;;;11.26;50.25;102242.06;5006333;28;20041;-55
2023/04/19 08:23:31;;;;;;;7.60;2.00;;;;;;;11.28;49.97;102243.72;5013420;28;20403;-53
2023/04/19 08:25:57;;;;;;;7.95;3.47;;;;;;;11.37;50.10;102228.50;5011068;28;20079;-53
2023/04/19 08:28:22;;;;;;;9.82;2.70;;;;;;;11.36;49.82;102245.22;5004371;28;20029;-54
2023/04/19 08:30:48;;;;;;;11.10;2.53;;;;;;;11.34;49.65;102244.41;5004390;28;20747;-53
2023/04/19 08:33:13;;;;;;;10.88;2.60;;;;;;;11.33;49.46;102246.22;4999958;28;20411;-50
2023/04/19 08:35:40;;;;;;;11.30;2.67;;;;;;;11.38;49.70;102232.84;5004620;28;20454;-52
2023/04/19 08:38:06;;;;;;;12.30;2.92;;;;;;;11.47;49.49;102243.03;5000569;28;20030;-51
2023/04/19 08:40:32;;;;;;;7.68;2.72;;;;;;;11.48;49.25;102241.28;4989397;28;20043;-54
2023/04/19 08:42:58;;;;;;;8.40;2.97;;;;;;;11.53;48.93;102232.28;4996493;28;20045;-53
2023/04/19 08:45:27;;;;;;;10.65;3.03;;;;;;;11.60;48.37;102227.63;5012211;28;20046;-55
2023/04/19 08:47:54;;;;;;;15.32;3.10;;;;;;;11.66;48.35;102229.16;5012807;28;20032;-54
2023/04/19 08:50:23;;;;;;;8.15;2.15;;;;;;;11.78;48.47;102217.28;5017044;28;20149;-52
2023/04/19 08:52:48;;;;;;;17.85;5.32;;;;;;;11.86;48.24;102218.72;5017406;28;20056;-52
2023/04/19 08:55:14;;;;;;;10.63;3.40;;;;;;;11.89;47.80;102221.19;5023952;28;20411;-50
2023/04/19 08:57:40;;;;;;;12.80;3.13;;;;;;;11.88;48.02;102224.75;5018145;28;20033;-54
2023/04/19 09:00:08;;;;;;;6.60;2.60;;;;;;;11.82;48.13;102213.59;5017706;28;20545;-53
2023/04/19 09:02:47;;;;;;;8.07;2.67;;;;;;;11.79;47.75;102206.69;5018923;28;20041;-53
2023/04/19 09:05:13;;;;;;;8.13;2.25;;;;;;;11.79;48.24;102205.84;5008880;28;20044;-50
2023/04/19 09:07:39;;;;;;;9.57;3.05;;;;;;;11.80;48.14;102203.13;5016590;28;20048;-49
2023/04/19 09:10:10;;;;;;;10.70;3.20;;;;;;;11.86;47.85;102197.63;5019516;28;20033;-53
2023/04/19 09:12:37;;;;;;;7.20;2.92;;;;;;;11.89;48.00;102202.75;5014314;28;20127;-50
2023/04/19 09:15:04;;;;;;;6.95;2.20;;;;;;;11.87;47.98;102188.75;5018703;28;20550;-52
2023/04/19 09:17:30;;;;;;;6.22;2.95;;;;;;;11.95;47.87;102190.25;5018532;28;20115;-51
2023/04/19 09:19:57;;;;;;;5.93;3.15;;;;;;;12.04;47.90;102188.13;5015304;28;20387;-53
2023/04/19 09:22:22;;;;;;;6.97;2.80;;;;;;;12.09;47.82;102202.91;5020431;28;20041;-52
2023/04/19 09:24:49;;;;;;;8.18;3.30;;;;;;;12.06;47.67;102197.75;5003775;28;20033;-52
2023/04/19 09:27:36;;;;;;;5.05;2.45;;;;;;;12.02;46.05;102171.50;5007848;28;20297;-53
2023/04/19 09:30:03;;;;;;;11.35;3.40;;;;;;;12.08;47.60;102174.81;5017596;28;20314;-52
2023/04/19 09:32:45;;;;;;;10.48;3.95;;;;;;;12.13;46.34;102176.34;5017870;28;20033;-53
2023/04/19 09:35:10;;;;;;;7.95;3.30;;;;;;;12.22;47.52;102197.97;5011885;28;20038;-54
2023/04/19 09:37:38;;;;;;;9.00;2.72;;;;;;;12.18;47.19;102176.13;5025582;28;20037;-54
2023/04/19 09:40:23;;;;;;;7.43;2.70;;;;;;;12.09;45.91;102172.09;5018764;28;20083;-54
2023/04/19 09:42:49;;;;;;;10.35;2.80;;;;;;;12.17;47.13;102175.28;5020603;28;20029;-52
2023/04/19 09:45:15;;;;;;;6.57;2.50;;;;;;;12.24;47.31;102172.38;5017841;28;20052;-54
2023/04/19 09:47:40;;;;;;;7.70;3.03;;;;;;;12.25;47.01;102177.56;5019060;28;20041;-54
2023/04/19 09:50:09;;;;;;;5.05;2.50;;;;;;;12.31;46.88;102173.84;5020271;28;20037;-53
2023/04/19 09:52:35;;;;;;;7.30;2.85;;;;;;;12.37;46.75;102176.22;5016850;28;20037;-53
2023/04/19 09:55:03;;;;;;;10.00;3.33;;;;;;;12.39;46.47;102173.53;5010740;28;20083;-55
2023/04/19 09:57:30;;;;;;;7.25;2.53;;;;;;;12.44;46.15;102172.41;5012348;28;20025;-54
2023/04/19 09:59:58;;;;;;;12.73;3.33;;;;;;;12.55;46.14;102168.44;5014977;28;20703;-51
2023/04/19 10:02:24;;;;;;;7.30;2.40;;;;;;;12.56;46.12;102170.16;5001751;28;20029;-51
2023/04/19 10:04:52;;;;;;;7.15;3.25;;;;;;;12.59;45.91;102157.66;5014299;28;20112;-53
2023/04/19 10:07:17;;;;;;;9.05;3.33;;;;;;;12.71;45.86;102158.91;5011091;28;20025;-54
2023/04/19 10:09:45;;;;;;;5.50;2.75;;;;;;;12.77;45.72;102168.34;5015805;28;20952;-55
2023/04/19 10:12:14;;;;;;;6.60;3.05;;;;;;;12.88;45.77;102159.94;5017033;28;20075;-51
2023/04/19 10:14:39;;;;;;;6.97;2.80;;;;;;;13.04;45.75;102160.97;5020525;28;20041;-52
2023/04/19 10:17:05;;;;;;;8.00;3.22;;;;;;;13.13;45.27;102157.06;5007684;28;20039;-55
2023/04/19 10:19:34;;;;;;;11.07;3.65;;;;;;;13.19;44.59;102145.34;5015620;28;20444;-53
2023/04/19 10:22:04;;;;;;;17.95;3.03;;;;;;;13.16;44.80;102154.25;5014448;28;20045;-52
2023/04/19 10:24:30;;;;;;;8.73;3.05;;;;;;;13.10;44.82;102143.97;5017015;28;20547;-55
2023/04/19 10:27:15;;;;;;;6.88;3.60;;;;;;;13.11;44.54;102135.97;5007911;28;20487;-54
2023/04/19 10:29:54;;;;;;;6.35;2.85;;;;;;;13.11;44.15;102130.69;5004197;28;20045;-52
2023/04/19 10:32:20;;;;;;;11.88;3.38;;;;;;;13.17;45.22;102131.34;4995697;28;20033;-52
2023/04/19 10:34:46;;;;;;;10.52;3.45;;;;;;;13.25;44.94;102138.00;4996274;28;20061;-53
2023/04/19 10:37:14;;;;;;;9.43;2.42;;;;;;;13.32;44.70;102132.38;5002912;28;20036;-54
2023/04/19 10:39:42;;;;;;;7.20;3.33;;;;;;;13.35;44.71;102143.69;4995950;28;20025;-54
2023/04/19 10:42:08;;;;;;;13.43;4.05;;;;;;;13.39;45.12;102133.84;4994541;28;30865;-54
2023/04/19 10:44:33;;;;;;;10.90;3.08;;;;;;;13.34;44.89;102119.97;4989346;28;20041;-54
2023/04/19 10:46:59;;;;;;;6.72;2.58;;;;;;;13.35;44.92;102114.63;4996380;28;20080;-54
2023/04/19 10:49:27;;;;;;;6.85;2.83;;;;;;;13.35;44.75;102121.69;4996675;28;20048;-54
2023/04/19 10:51:56;;;;;;;6.50;2.83;;;;;;;13.32;45.10;102135.91;4993894;28;20032;-54
2023/04/19 10:54:30;;;;;;;7.40;2.60;;;;;;;13.28;44.22;102107.91;4994581;28;20033;-55
2023/04/19 10:57:00;;;;;;;5.30;3.38;;;;;;;13.22;44.58;102121.41;4991785;28;20037;-53
2023/04/19 10:59:28;;;;;;;9.93;3.42;;;;;;;13.29;44.84;102099.03;5002394;28;20025;-55
2023/04/19 11:01:59;;;;;;;10.70;3.20;;;;;;;13.26;44.79;102094.75;4993967;28;20124;-53
2023/04/19 11:04:31;;;;;;;10.27;3.67;;;;;;;13.33;44.85;102087.41;4993413;28;20038;-54
2023/04/19 11:07:03;;;;;;;9.85;4.05;;;;;;;13.31;44.25;102098.97;4990605;28;20038;-51
2023/04/19 11:09:37;;;;;;;13.27;3.70;;;;;;;13.34;43.98;102083.81;4994856;28;20407;-54
2023/04/19 11:12:33;;;;;;;9.43;3.45;;;;;;;13.41;43.99;102074.69;4988540;28;20040;-54
2023/04/19 11:14:59;;;;;;;10.45;3.35;;;;;;;13.31;44.36;102068.09;4969394;28;20048;-54
2023/04/19 11:17:30;;;;;;;8.30;3.30;;;;;;;13.41;44.63;102073.84;5001997;28;20536;-51
2023/04/19 11:20:00;;;;;;;8.57;3.65;;;;;;;13.48;44.55;102082.34;4989309;28;21532;-54
2023/04/19 11:22:38;;;;;;;11.57;4.93;;;;;;;13.63;44.43;102056.91;4992957;28;20099;-54
2023/04/19 11:25:08;;;;;;;8.23;3.47;;;;;;;13.74;44.50;102054.59;4995653;28;20592;-52